Terminal Aerodrome Forecast
Issued by NWS

Home | Current Version | Previous Version | Text Only | Print | Product List | Glossary On
Versions: 1 2 3 4 5 6 7 8 9 10 11 12 13 14 15 16
194
FTUS43 KGRR 232340
TAFLAN
TAF
KLAN 232340Z 2400/2424 VRB04KT P6SM BKN150
     FM241100 20009KT P6SM VCTS BKN060CB
     FM241700 21010G16KT P6SM OVC200=

USA.gov is the U.S. government's official web portal to all federal, state and local government web resources and services.